Time;durP1;ratioP1;P1;durP2;ratioP2;P2;SDS_P1;SDS_P2;PMS_P1;PMS_P2;Temp;Humidity;BMP_temperature;BMP_pressure;BME280_temperature;BME280_humidity;BME280_pressure;Samples;Min_cycle;Max_cycle;Signal;HPM_P1;HPM_P2
2022/10/07 00:00:22;;;;;;;;;;;;;;;11.61;89.34;98032.53;30001;982;1877;-56
2022/10/07 00:00:53;;;;;;;;;;;;;;;11.62;89.41;98036.88;30001;983;1880;-58
2022/10/07 00:01:24;;;;;;;;;;;;;;;11.60;89.25;98034.44;30001;983;1876;-56
2022/10/07 00:01:56;;;;;;;;;;;;;;;11.60;89.49;98033.63;30001;983;1880;-57
2022/10/07 00:02:27;;;;;;;;;;;;;;;11.59;89.11;98032.81;30001;983;1863;-57
2022/10/07 00:02:58;;;;;;;;;;;;;;;11.57;89.06;98040.41;30001;983;1872;-56
2022/10/07 00:03:30;;;;;;;;;;;;;;;11.56;89.37;98038.78;30001;986;1877;-56
2022/10/07 00:04:01;;;;;;;;;;;;;;;11.55;89.69;98030.91;30001;983;1881;-57
2022/10/07 00:04:35;;;;;;;;;;;;;;;11.56;89.45;98037.97;30001;983;1876;-58
2022/10/07 00:05:06;;;;;;;;;;;;;;;11.56;89.66;98032.53;30001;982;1881;-56
2022/10/07 00:05:37;;;;;;;;;;;;;;;11.55;89.25;98030.91;30001;982;1877;-58
2022/10/07 00:06:16;;;;;;;;;;;;;;;11.56;89.05;98029.81;30001;982;1881;-56
2022/10/07 00:06:47;;;;;;;;;;;;;;;11.56;89.09;98030.62;30001;982;1877;-57
2022/10/07 00:07:18;;;;;;;;;;;;;;;11.57;89.00;98034.16;30001;982;1881;-56
2022/10/07 00:07:49;;;;;;;;;;;;;;;11.57;88.87;98026.81;30001;982;1864;-56
2022/10/07 00:08:20;;;;;;;;;;;;;;;11.59;89.17;98029.28;30001;982;1872;-57
2022/10/07 00:08:52;;;;;;;;;;;;;;;11.59;89.05;98034.72;30001;983;1876;-56
2022/10/07 00:09:23;;;;;;;;;;;;;;;11.61;89.16;98035.25;30001;983;1880;-56
2022/10/07 00:09:54;;;;;;;;;;;;;;;11.61;88.87;98037.97;30001;983;1863;-57
2022/10/07 00:10:26;;;;;;;;;;;;;;;11.62;89.22;98036.88;30001;983;1872;-56
2022/10/07 00:11:02;;;;;;;;;;;;;;;11.62;89.31;98036.88;30001;983;1876;-57
2022/10/07 00:11:33;;;;;;;;;;;;;;;11.62;89.38;98036.88;30001;983;1881;-56
2022/10/07 00:12:04;;;;;;;;;;;;;;;11.63;88.88;98027.66;30001;983;1863;-57
2022/10/07 00:12:35;;;;;;;;;;;;;;;11.63;89.15;98030.38;30001;982;1872;-57
2022/10/07 00:13:08;;;;;;;;;;;;;;;11.65;88.80;98031.72;30001;982;1877;-57
2022/10/07 00:13:40;;;;;;;;;;;;;;;11.66;88.76;98032.53;30001;982;1881;-57
2022/10/07 00:14:11;;;;;;;;;;;;;;;11.66;88.79;98029.81;30001;982;1877;-56
2022/10/07 00:14:42;;;;;;;;;;;;;;;11.67;88.62;98028.72;30001;982;1881;-57
2022/10/07 00:15:14;;;;;;;;;;;;;;;11.66;88.50;98033.34;30001;982;1877;-57
2022/10/07 00:15:45;;;;;;;;;;;;;;;11.67;88.60;98029.56;30001;982;1881;-57
2022/10/07 00:16:18;;;;;;;;;;;;;;;11.68;88.21;98030.38;30001;983;1876;-58
2022/10/07 00:16:49;;;;;;;;;;;;;;;11.68;88.18;98033.91;30001;983;1880;-58
2022/10/07 00:17:20;;;;;;;;;;;;;;;11.69;88.13;98029.28;30001;983;1863;-63
2022/10/07 00:17:52;;;;;;;;;;;;;;;11.68;88.32;98025.75;30001;983;1872;-56
2022/10/07 00:18:23;;;;;;;;;;;;;;;11.69;88.31;98032.00;30001;983;1876;-57
2022/10/07 00:18:56;;;;;;;;;;;;;;;11.70;88.06;98028.19;30001;983;1880;-56
2022/10/07 00:19:27;;;;;;;;;;;;;;;11.69;88.15;98027.37;30001;983;1876;-57
2022/10/07 00:19:58;;;;;;;;;;;;;;;11.70;88.28;98033.63;30001;983;1881;-56
2022/10/07 00:20:29;;;;;;;;;;;;;;;11.70;87.98;98033.63;30001;982;1877;-56
2022/10/07 00:21:04;;;;;;;;;;;;;;;11.69;87.43;98023.84;30001;982;1881;-56
2022/10/07 00:21:36;;;;;;;;;;;;;;;11.70;87.39;98028.19;30001;982;1864;-57
2022/10/07 00:22:07;;;;;;;;;;;;;;;11.70;87.41;98029.00;30001;982;1872;-56
2022/10/07 00:22:38;;;;;;;;;;;;;;;11.71;87.50;98024.38;30001;983;1876;-58
2022/10/07 00:23:09;;;;;;;;;;;;;;;11.72;87.43;98026.03;30001;983;1880;-56
2022/10/07 00:23:44;;;;;;;;;;;;;;;11.72;87.43;98026.03;30001;983;1876;-63
2022/10/07 00:24:15;;;;;;;;;;;;;;;11.73;87.48;98027.66;30001;983;1880;-56
2022/10/07 00:24:47;;;;;;;;;;;;;;;11.72;87.43;98026.03;30001;983;1876;-57
2022/10/07 00:25:18;;;;;;;;;;;;;;;11.72;87.41;98026.03;30001;983;1881;-57
2022/10/07 00:25:49;;;;;;;;;;;;;;;11.72;87.79;98020.59;30001;983;1876;-56
2022/10/07 00:26:23;;;;;;;;;;;;;;;11.72;88.20;98020.59;30001;983;1880;-64
2022/10/07 00:26:56;;;;;;;;;;;;;;;11.71;88.05;98024.38;30001;983;1863;-56
2022/10/07 00:27:28;;;;;;;;;;;;;;;11.70;88.29;98028.19;30001;983;1872;-56
2022/10/07 00:27:59;;;;;;;;;;;;;;;11.70;88.13;98023.56;30001;982;1877;-56
2022/10/07 00:28:30;;;;;;;;;;;;;;;11.70;88.03;98022.75;30001;982;1881;-57
2022/10/07 00:29:02;;;;;;;;;;;;;;;11.71;87.80;98024.38;30001;982;1877;-56
2022/10/07 00:29:33;;;;;;;;;;;;;;;11.71;88.14;98018.94;30001;982;1881;-56
2022/10/07 00:30:06;;;;;;;;;;;;;;;11.69;88.21;98019.22;30001;982;1877;-56
2022/10/07 00:30:36;;;;;;;;;;;;;;;11.69;87.89;98023.84;30001;983;1881;-58
2022/10/07 00:31:09;;;;;;;;;;;;;;;11.69;88.08;98026.56;30001;983;1876;-57
2022/10/07 00:31:40;;;;;;;;;;;;;;;11.69;88.14;98023.84;30001;983;1880;-57
2022/10/07 00:32:11;;;;;;;;;;;;;;;11.69;87.85;98026.56;30001;983;1863;-56
2022/10/07 00:32:42;;;;;;;;;;;;;;;11.68;87.89;98019.50;30001;983;1872;-56
2022/10/07 00:33:13;;;;;;;;;;;;;;;11.68;87.92;98019.50;30001;983;1876;-63
2022/10/07 00:33:44;;;;;;;;;;;;;;;11.68;88.19;98016.78;30001;983;1881;-57
2022/10/07 00:34:15;;;;;;;;;;;;;;;11.68;87.87;98019.50;30001;983;1876;-57
2022/10/07 00:34:50;;;;;;;;;;;;;;;11.69;88.26;98010.25;30001;983;1881;-57
2022/10/07 00:35:21;;;;;;;;;;;;;;;11.68;88.33;98016.78;30001;982;1877;-56
2022/10/07 00:35:54;;;;;;;;;;;;;;;11.68;88.35;98016.78;30001;982;1881;-57
2022/10/07 00:36:27;;;;;;;;;;;;;;;11.68;88.41;98014.06;30001;982;1877;-56
2022/10/07 00:36:58;;;;;;;;;;;;;;;11.68;88.19;98014.06;30001;982;1881;-57
2022/10/07 00:37:29;;;;;;;;;;;;;;;11.67;88.08;98015.97;30001;982;1864;-56
2022/10/07 00:38:00;;;;;;;;;;;;;;;11.66;88.29;98008.06;30001;983;1859;-57
2022/10/07 00:38:31;;;;;;;;;;;;;;;11.67;88.12;98012.44;30001;983;1876;-57
2022/10/07 00:39:04;;;;;;;;;;;;;;;11.66;88.51;98008.88;30001;983;1881;-56
2022/10/07 00:39:35;;;;;;;;;;;;;;;11.66;88.44;98011.59;30001;983;1876;-58
2022/10/07 00:40:07;;;;;;;;;;;;;;;11.66;88.29;98005.34;30001;983;1881;-57
2022/10/07 00:40:40;;;;;;;;;;;;;;;11.66;88.53;98005.34;30001;983;1877;-57
2022/10/07 00:41:16;;;;;;;;;;;;;;;11.65;88.72;98009.97;30001;983;1880;-57
2022/10/07 00:41:49;;;;;;;;;;;;;;;11.65;89.37;98001.00;30001;983;1876;-56
2022/10/07 00:42:21;;;;;;;;;;;;;;;11.65;89.23;98004.53;30001;983;1868;-57
2022/10/07 00:42:52;;;;;;;;;;;;;;;11.64;88.75;98011.06;30001;982;1868;-56
2022/10/07 00:43:28;;;;;;;;;;;;;;;11.65;88.76;98003.72;30001;982;1881;-57
2022/10/07 00:44:19;;;;;;;;;;;;;;;11.64;88.59;97999.38;30001;982;1877;-57
2022/10/07 00:44:50;;;;;;;;;;;;;;;11.65;88.49;97998.28;30001;982;1877;-58
2022/10/07 00:46:41;;;;;;;;;;;;;;;11.64;88.92;98002.91;89986;930;18000;-57
2022/10/07 00:47:27;;;;;;;;;;;;;;;11.63;89.07;97995.84;30001;982;1869;-57
2022/10/07 00:47:58;;;;;;;;;;;;;;;11.63;88.96;98000.47;30001;982;1869;-57
2022/10/07 00:48:31;;;;;;;;;;;;;;;11.62;88.81;97999.66;30001;982;1882;-58
2022/10/07 00:49:05;;;;;;;;;;;;;;;11.62;88.88;97993.38;30001;983;1877;-57
2022/10/07 00:49:39;;;;;;;;;;;;;;;11.63;89.02;97995.03;30001;983;1882;-57
2022/10/07 00:50:14;;;;;;;;;;;;;;;11.62;88.75;97996.09;30001;983;1877;-57
2022/10/07 00:50:47;;;;;;;;;;;;;;;11.62;88.88;97998.81;30001;983;1868;-58
2022/10/07 00:51:18;;;;;;;;;;;;;;;11.62;88.82;97993.38;30001;983;1856;-58
2022/10/07 00:51:50;;;;;;;;;;;;;;;11.62;88.89;97993.38;30001;983;1882;-57
2022/10/07 00:52:25;;;;;;;;;;;;;;;11.63;88.61;97989.59;30001;983;1877;-57
2022/10/07 00:52:58;;;;;;;;;;;;;;;11.63;88.75;97986.88;30001;982;1873;-57
2022/10/07 00:53:30;;;;;;;;;;;;;;;11.64;88.94;97985.78;30001;982;1873;-57
2022/10/07 00:54:02;;;;;;;;;;;;;;;11.63;88.85;97990.41;30001;982;1886;-58
2022/10/07 00:54:34;;;;;;;;;;;;;;;11.63;88.96;97984.97;30001;982;1882;-57
2022/10/07 00:55:09;;;;;;;;;;;;;;;11.64;88.85;97985.78;30001;982;1886;-57
2022/10/07 00:55:41;;;;;;;;;;;;;;;11.64;88.80;97985.78;30001;982;1882;-57
2022/10/07 00:56:14;;;;;;;;;;;;;;;11.64;88.96;97991.22;30001;982;1874;-57
2022/10/07 00:56:45;;;;;;;;;;;;;;;11.63;89.41;97987.69;30001;983;1873;-58
2022/10/07 00:57:16;;;;;;;;;;;;;;;11.62;89.38;97982.53;30001;983;1886;-57
2022/10/07 00:57:48;;;;;;;;;;;;;;;11.62;89.17;97986.06;30001;983;1881;-57
2022/10/07 00:58:19;;;;;;;;;;;;;;;11.63;89.21;97984.16;30001;983;1886;-57
2022/10/07 00:58:50;;;;;;;;;;;;;;;11.62;89.22;97977.06;30001;983;1882;-59
2022/10/07 00:59:21;;;;;;;;;;;;;;;11.62;89.34;97979.81;30001;983;1886;-57
2022/10/07 00:59:54;;;;;;;;;;;;;;;11.62;89.48;97982.53;30001;983;1882;-57
2022/10/07 01:00:25;;;;;;;;;;;;;;;11.61;89.68;97975.44;30001;983;1886;-58
2022/10/07 01:00:57;;;;;;;;;;;;;;;11.59;89.51;97974.91;30001;982;1882;-57
2022/10/07 01:01:30;;;;;;;;;;;;;;;11.60;89.55;97976.53;30001;982;1873;-57
2022/10/07 01:02:01;;;;;;;;;;;;;;;11.59;89.57;97975.72;30001;982;1873;-57
2022/10/07 01:02:32;;;;;;;;;;;;;;;11.60;89.68;97976.53;30001;982;1887;-57
2022/10/07 01:03:06;;;;;;;;;;;;;;;11.59;89.57;97977.62;30001;982;1882;-58
2022/10/07 01:03:37;;;;;;;;;;;;;;;11.59;89.65;97978.44;30001;982;1887;-57
2022/10/07 01:04:10;;;;;;;;;;;;;;;11.59;90.22;97978.44;30001;983;1882;-57
2022/10/07 01:04:42;;;;;;;;;;;;;;;11.59;90.51;97972.19;30001;983;1886;-57
2022/10/07 01:05:13;;;;;;;;;;;;;;;11.58;90.39;97978.72;30001;983;1882;-58
2022/10/07 01:05:44;;;;;;;;;;;;;;;11.58;90.38;97973.28;30001;983;1886;-57
2022/10/07 01:06:15;;;;;;;;;;;;;;;11.59;90.51;97977.62;30001;983;1869;-56
2022/10/07 01:06:47;;;;;;;;;;;;;;;11.59;90.34;97972.19;30001;983;1877;-57
2022/10/07 01:07:19;;;;;;;;;;;;;;;11.58;90.38;97970.56;30001;983;1882;-57
2022/10/07 01:07:50;;;;;;;;;;;;;;;11.59;90.69;97983.06;30001;983;1886;-57
2022/10/07 01:08:22;;;;;;;;;;;;;;;11.57;90.45;97969.75;30001;982;1882;-57
2022/10/07 01:08:53;;;;;;;;;;;;;;;11.59;90.34;97974.91;30001;982;1886;-57
2022/10/07 01:09:24;;;;;;;;;;;;;;;11.57;90.25;97975.19;30001;982;1882;-57
2022/10/07 01:09:58;;;;;;;;;;;;;;;11.57;90.35;97971.63;30001;982;1887;-57
2022/10/07 01:10:40;;;;;;;;;;;;;;;11.58;90.17;97976.00;30001;982;1882;-57
2022/10/07 01:11:31;;;;;;;;;;;;;;;11.56;90.04;97978.16;30001;983;1886;-57
2022/10/07 01:12:18;;;;;;;;;;;;;;;11.57;90.03;97968.91;30001;983;1864;-57
2022/10/07 01:12:58;;;;;;;;;;;;;;;11.56;90.25;97970.81;30001;983;1877;-57
2022/10/07 01:13:41;;;;;;;;;;;;;;;11.56;90.14;97972.72;30001;983;1787;-57
2022/10/07 01:14:19;;;;;;;;;;;;;;;11.54;90.32;97966.75;30001;983;1886;-57
2022/10/07 01:14:56;;;;;;;;;;;;;;;11.54;90.31;97969.47;30001;983;1882;-57
2022/10/07 01:15:35;;;;;;;;;;;;;;;11.54;90.14;97972.19;30001;983;1886;-57
2022/10/07 01:16:24;;;;;;;;;;;;;;;11.53;90.12;97967.84;30001;982;1882;-63
2022/10/07 01:17:06;;;;;;;;;;;;;;;11.55;90.33;97968.38;30001;982;1886;-57
2022/10/07 01:17:52;;;;;;;;;;;;;;;11.54;90.13;97970.28;30001;982;1869;-57
2022/10/07 01:18:31;;;;;;;;;;;;;;;11.54;90.07;97964.03;30001;983;1877;-56
2022/10/07 01:19:28;;;;;;;;;;;;;;;11.54;90.10;97955.88;30001;983;1868;-57
2022/10/07 01:20:10;;;;;;;;;;;;;;;11.54;90.41;97974.91;30001;983;1873;-56
2022/10/07 01:20:59;;;;;;;;;;;;;;;11.55;89.98;97963.75;30001;983;1882;-56
2022/10/07 01:21:47;;;;;;;;;;;;;;;11.54;90.09;97964.03;30001;987;1877;-57
2022/10/07 01:22:36;;;;;;;;;;;;;;;11.55;89.88;97966.47;30001;983;1882;-56
2022/10/07 01:23:33;;;;;;;;;;;;;;;11.56;89.74;97967.28;30001;982;1878;-56
2022/10/07 01:24:27;;;;;;;;;;;;;;;11.57;89.76;97966.22;30001;982;1865;-56
2022/10/07 01:25:11;;;;;;;;;;;;;;;11.58;89.76;97971.38;30001;982;1874;-57
2022/10/07 01:26:05;;;;;;;;;;;;;;;11.57;89.87;97958.06;30001;983;1881;-57
2022/10/07 01:26:46;;;;;;;;;;;;;;;11.57;90.19;97963.50;30001;983;1882;-56
2022/10/07 01:27:19;;;;;;;;;;;;;;;11.58;91.07;97965.94;30001;983;1881;-57
2022/10/07 01:27:57;;;;;;;;;;;;;;;11.57;91.03;97958.06;30001;983;1886;-56
2022/10/07 01:28:30;;;;;;;;;;;;;;;11.56;91.17;97962.66;30001;983;1882;-57
2022/10/07 01:29:03;;;;;;;;;;;;;;;11.56;91.43;97957.22;30001;983;1886;-56
2022/10/07 01:29:37;;;;;;;;;;;;;;;11.56;91.23;97961.84;30001;983;1869;-56
2022/10/07 01:30:09;;;;;;;;;;;;;;;11.56;91.21;97959.13;30001;983;1877;-57
2022/10/07 01:30:43;;;;;;;;;;;;;;;11.55;90.99;97960.22;30001;983;1882;-58
2022/10/07 01:31:16;;;;;;;;;;;;;;;11.56;90.77;97962.66;30001;982;1886;-58
2022/10/07 01:32:10;;;;;;;;;;;;;;;11.56;90.50;97959.13;30001;982;1882;-58
2022/10/07 01:32:49;;;;;;;;;;;;;;;11.56;90.68;97957.22;30001;982;1882;-56
2022/10/07 01:33:26;;;;;;;;;;;;;;;11.56;90.31;97961.84;30001;983;1881;-57
2022/10/07 01:33:58;;;;;;;;;;;;;;;11.56;90.19;97961.84;30001;983;1886;-57
2022/10/07 01:34:29;;;;;;;;;;;;;;;11.56;90.10;97959.13;30001;983;1882;-56
2022/10/07 01:35:01;;;;;;;;;;;;;;;11.55;90.11;97965.66;30001;983;1873;-57
2022/10/07 01:35:34;;;;;;;;;;;;;;;11.56;89.96;97959.13;30001;983;1873;-56
2022/10/07 01:36:24;;;;;;;;;;;;;;;11.56;90.14;97959.13;30001;983;1886;-56
2022/10/07 01:36:56;;;;;;;;;;;;;;;11.56;90.08;97953.69;30001;983;1882;-57
2022/10/07 01:37:30;;;;;;;;;;;;;;;11.56;89.97;97953.69;30001;987;1861;-56
2022/10/07 01:38:04;;;;;;;;;;;;;;;11.55;90.02;97954.78;30001;983;1873;-57
2022/10/07 01:38:39;;;;;;;;;;;;;;;11.55;89.98;97962.94;30001;982;1878;-57
2022/10/07 01:39:12;;;;;;;;;;;;;;;11.56;89.83;97950.97;30001;982;1882;-57
2022/10/07 01:39:52;;;;;;;;;;;;;;;11.56;89.92;97956.41;30001;982;1878;-57
2022/10/07 01:40:26;;;;;;;;;;;;;;;11.56;90.00;97950.97;30001;982;1882;-58
2022/10/07 01:41:03;;;;;;;;;;;;;;;11.57;90.48;97958.87;30001;983;1877;-57
2022/10/07 01:41:36;;;;;;;;;;;;;;;11.57;90.71;97952.63;30001;983;1882;-57
2022/10/07 01:42:07;;;;;;;;;;;;;;;11.55;90.66;97950.16;30001;983;1877;-57
2022/10/07 01:42:39;;;;;;;;;;;;;;;11.55;90.47;97949.34;30001;983;1869;-57
2022/10/07 01:43:12;;;;;;;;;;;;;;;11.55;90.57;97954.78;30001;983;1868;-57
2022/10/07 01:43:44;;;;;;;;;;;;;;;11.55;90.48;97949.34;30001;983;1882;-57
2022/10/07 01:44:15;;;;;;;;;;;;;;;11.54;90.54;97951.25;30001;983;1877;-57
2022/10/07 01:44:48;;;;;;;;;;;;;;;11.54;90.59;97959.41;30001;983;1882;-58
2022/10/07 01:45:21;;;;;;;;;;;;;;;11.55;90.67;97946.62;30001;982;1878;-56
2022/10/07 01:45:53;;;;;;;;;;;;;;;11.54;90.57;97948.53;30001;982;1882;-57
2022/10/07 01:46:25;;;;;;;;;;;;;;;11.55;90.97;97946.62;30001;982;1878;-58
2022/10/07 01:46:57;;;;;;;;;;;;;;;11.54;90.71;97945.00;30001;982;1882;-56
2022/10/07 01:47:28;;;;;;;;;;;;;;;11.53;90.89;97946.91;30001;982;1878;-56
2022/10/07 01:48:00;;;;;;;;;;;;;;;11.53;90.57;97951.53;30001;982;1869;-57
2022/10/07 01:48:32;;;;;;;;;;;;;;;11.53;90.70;97940.66;30001;983;1868;-57
2022/10/07 01:49:04;;;;;;;;;;;;;;;11.53;90.63;97943.37;30001;983;1881;-58
2022/10/07 01:49:38;;;;;;;;;;;;;;;11.53;91.12;97946.09;30001;983;1877;-57
2022/10/07 01:50:13;;;;;;;;;;;;;;;11.53;91.00;97946.09;30001;983;1881;-57
2022/10/07 01:50:44;;;;;;;;;;;;;;;11.51;91.37;97942.84;30001;983;1780;-56
2022/10/07 01:51:16;;;;;;;;;;;;;;;11.49;91.56;97939.56;30001;983;1882;-57
2022/10/07 01:51:54;;;;;;;;;;;;;;;11.48;91.63;97940.66;30001;983;1878;-56
2022/10/07 01:52:58;;;;;;;;;;;;;;;11.49;91.39;97934.13;30001;983;1882;-58
2022/10/07 01:53:48;;;;;;;;;;;;;;;11.49;91.12;97939.56;30001;982;1860;-56
2022/10/07 01:54:26;;;;;;;;;;;;;;;11.50;91.14;97935.75;30001;982;1873;-56
2022/10/07 01:55:19;;;;;;;;;;;;;;;11.49;91.24;97936.84;30001;982;1878;-57
2022/10/07 01:55:58;;;;;;;;;;;;;;;11.46;91.21;97930.06;30001;983;1877;-57
2022/10/07 01:56:48;;;;;;;;;;;;;;;11.46;91.22;97934.69;30001;983;1877;-57
2022/10/07 01:57:39;;;;;;;;;;;;;;;11.47;90.98;97930.88;30001;964;1896;-57
2022/10/07 01:58:30;;;;;;;;;;;;;;;11.47;90.92;97937.13;30001;983;1877;-56
2022/10/07 01:59:23;;;;;;;;;;;;;;;11.47;90.75;97926.25;30001;983;1864;-57
2022/10/07 02:00:06;;;;;;;;;;;;;;;11.48;90.99;97927.06;30001;983;1864;-56
2022/10/07 02:00:41;;;;;;;;;;;;;;;11.48;90.73;97927.06;30001;982;1882;-56
2022/10/07 02:01:22;;;;;;;;;;;;;;;11.49;91.00;97926.78;30001;982;1878;-56
2022/10/07 02:02:13;;;;;;;;;;;;;;;11.49;91.05;97923.25;30001;982;1882;-57
2022/10/07 02:02:53;;;;;;;;;;;;;;;11.49;91.39;97926.78;30001;982;1874;-58
2022/10/07 02:03:32;;;;;;;;;;;;;;;11.49;91.22;97928.69;30001;983;1882;-57
2022/10/07 02:04:30;;;;;;;;;;;;;;;11.50;90.95;97928.44;30001;983;1864;-57
2022/10/07 02:05:24;;;;;;;;;;;;;;;11.50;91.20;97922.16;30001;983;1868;-57
2022/10/07 02:06:30;;;;;;;;;;;;;;;11.51;91.80;97931.97;30001;983;1873;-58
2022/10/07 02:07:19;;;;;;;;;;;;;;;11.50;91.56;97919.47;30001;983;1878;-58
2022/10/07 02:08:09;;;;;;;;;;;;;;;11.49;91.46;97924.06;30001;982;1869;-56
2022/10/07 02:08:50;;;;;;;;;;;;;;;11.49;91.18;97923.25;30001;982;1883;-57
2022/10/07 02:09:32;;;;;;;;;;;;;;;11.49;91.03;97923.25;30001;982;1865;-56
2022/10/07 02:10:25;;;;;;;;;;;;;;;11.51;91.35;97921.09;30001;982;1873;-57
2022/10/07 02:11:09;;;;;;;;;;;;;;;11.50;91.56;97919.47;30001;983;1873;-56
2022/10/07 02:11:42;;;;;;;;;;;;;;;11.50;91.38;97916.75;30001;983;1882;-58
2022/10/07 02:12:33;;;;;;;;;;;;;;;11.49;91.64;97918.63;30001;982;1885;-58
2022/10/07 02:13:10;;;;;;;;;;;;;;;11.49;91.23;97917.81;30001;983;1877;-58
2022/10/07 02:13:47;;;;;;;;;;;;;;;11.50;91.15;97919.47;30001;983;1878;-56
2022/10/07 02:14:25;;;;;;;;;;;;;;;11.50;91.10;97919.47;30001;983;1882;-57
2022/10/07 02:15:06;;;;;;;;;;;;;;;11.50;91.11;97919.47;30001;983;1864;-58
2022/10/07 02:15:59;;;;;;;;;;;;;;;11.50;91.32;97914.03;30001;982;1873;-56
2022/10/07 02:17:44;;;;;;;;;;;;;;;11.46;91.78;97916.47;89986;930;18000;-64
2022/10/07 02:18:17;;;;;;;;;;;;;;;11.46;91.46;97913.75;30001;983;1868;-59
2022/10/07 02:18:50;;;;;;;;;;;;;;;11.47;91.54;97914.56;30001;983;1869;-57
2022/10/07 02:19:23;;;;;;;;;;;;;;;11.47;91.69;97911.84;30001;982;1880;-57
2022/10/07 02:19:55;;;;;;;;;;;;;;;11.48;91.95;97916.19;30001;982;1877;-57
2022/10/07 02:20:33;;;;;;;;;;;;;;;11.47;91.93;97912.66;30001;982;1868;-58
2022/10/07 02:21:05;;;;;;;;;;;;;;;11.48;91.81;97910.75;30001;982;1867;-58
2022/10/07 02:21:39;;;;;;;;;;;;;;;11.48;91.45;97910.75;30001;982;1880;-58
2022/10/07 02:22:12;;;;;;;;;;;;;;;11.49;91.51;97912.37;30001;982;1877;-57
2022/10/07 02:22:45;;;;;;;;;;;;;;;11.49;91.62;97906.94;30001;983;1880;-58
2022/10/07 02:23:18;;;;;;;;;;;;;;;11.48;91.54;97908.03;30001;983;1876;-57
2022/10/07 02:23:50;;;;;;;;;;;;;;;11.48;91.58;97899.88;30001;983;1880;-57
2022/10/07 02:24:22;;;;;;;;;;;;;;;11.48;91.29;97905.31;30001;972;1896;-57
2022/10/07 02:24:58;;;;;;;;;;;;;;;11.48;91.43;97908.03;30001;983;1880;-57
2022/10/07 02:25:33;;;;;;;;;;;;;;;11.47;91.09;97907.22;30001;983;1863;-57
2022/10/07 02:26:06;;;;;;;;;;;;;;;11.48;91.27;97899.88;30001;983;1872;-57
2022/10/07 02:26:37;;;;;;;;;;;;;;;11.49;91.38;97901.53;30001;970;1897;-57
2022/10/07 02:27:11;;;;;;;;;;;;;;;11.50;91.68;97908.59;30001;982;1880;-58
2022/10/07 02:27:44;;;;;;;;;;;;;;;11.49;91.35;97902.34;30001;982;1877;-58
2022/10/07 02:28:16;;;;;;;;;;;;;;;11.51;91.60;97910.22;30001;982;1881;-57
2022/10/07 02:28:50;;;;;;;;;;;;;;;11.51;91.39;97902.06;30001;982;1877;-57
2022/10/07 02:29:22;;;;;;;;;;;;;;;11.52;91.60;97900.97;30001;983;1880;-57
2022/10/07 02:29:56;;;;;;;;;;;;;;;11.51;91.29;97899.34;30001;983;1876;-57
2022/10/07 02:30:29;;;;;;;;;;;;;;;11.52;91.78;97901.78;30001;983;1880;-57
2022/10/07 02:31:03;;;;;;;;;;;;;;;11.51;91.94;97900.16;30001;983;1863;-57
2022/10/07 02:31:35;;;;;;;;;;;;;;;11.51;91.72;97904.78;30001;983;1871;-57
2022/10/07 02:32:09;;;;;;;;;;;;;;;11.51;91.84;97899.34;30001;983;1876;-57
2022/10/07 02:32:42;;;;;;;;;;;;;;;11.50;91.74;97906.69;30001;983;1881;-57
2022/10/07 02:33:14;;;;;;;;;;;;;;;11.50;91.48;97895.00;30001;983;1876;-57
2022/10/07 02:33:46;;;;;;;;;;;;;;;11.51;91.30;97899.34;30001;966;1898;-57
2022/10/07 02:34:18;;;;;;;;;;;;;;;11.52;91.26;97900.97;30001;982;1876;-57
2022/10/07 02:34:52;;;;;;;;;;;;;;;11.52;91.21;97901.78;30001;982;1880;-57
2022/10/07 02:35:27;;;;;;;;;;;;;;;11.53;91.27;97892.53;30001;982;1877;-58
2022/10/07 02:36:01;;;;;;;;;;;;;;;11.55;91.15;97900.44;30001;982;1880;-58
2022/10/07 02:36:35;;;;;;;;;;;;;;;11.55;91.20;97900.44;30001;982;1864;-58
2022/10/07 02:37:10;;;;;;;;;;;;;;;11.54;91.43;97896.91;30001;983;1871;-58
2022/10/07 02:37:42;;;;;;;;;;;;;;;11.54;91.15;97893.38;30001;983;1778;-57
2022/10/07 02:38:14;;;;;;;;;;;;;;;11.54;91.37;97893.38;30001;983;1880;-58
2022/10/07 02:38:45;;;;;;;;;;;;;;;11.53;91.05;97897.16;30001;983;1876;-57
2022/10/07 02:39:17;;;;;;;;;;;;;;;11.54;91.29;97898.78;30001;983;1880;-57
2022/10/07 02:39:48;;;;;;;;;;;;;;;11.53;91.57;97889.81;30001;983;1876;-58
2022/10/07 02:40:21;;;;;;;;;;;;;;;11.53;91.79;97902.59;30001;983;1881;-57
2022/10/07 02:41:06;;;;;;;;;;;;;;;11.52;91.87;97893.62;30001;983;1876;-57
2022/10/07 02:41:43;;;;;;;;;;;;;;;11.52;91.40;97893.62;30001;983;1868;-57
2022/10/07 02:42:24;;;;;;;;;;;;;;;11.52;91.57;97895.53;30001;982;1868;-57
2022/10/07 02:43:10;;;;;;;;;;;;;;;11.51;91.93;97891.19;30001;982;1881;-57
2022/10/07 02:43:49;;;;;;;;;;;;;;;11.49;91.90;97886.03;30001;982;1876;-57
2022/10/07 02:44:40;;;;;;;;;;;;;;;11.49;91.65;97890.66;30001;983;1876;-57
2022/10/07 02:45:36;;;;;;;;;;;;;;;11.49;91.84;97888.75;30001;970;1893;-58
2022/10/07 02:46:10;;;;;;;;;;;;;;;11.48;91.93;97883.59;30001;983;1876;-57
2022/10/07 02:47:10;;;;;;;;;;;;;;;11.47;91.72;97887.38;30001;983;1862;-63
2022/10/07 02:47:48;;;;;;;;;;;;;;;11.47;91.93;97895.53;30001;983;1867;-57
2022/10/07 02:48:24;;;;;;;;;;;;;;;11.47;92.12;97887.38;30001;983;1876;-58
2022/10/07 02:48:57;;;;;;;;;;;;;;;11.47;92.18;97884.66;30001;983;1881;-58
2022/10/07 02:49:30;;;;;;;;;;;;;;;11.47;92.07;97887.38;30001;982;1876;-57
2022/10/07 02:50:04;;;;;;;;;;;;;;;11.47;91.99;97888.19;30001;982;1880;-59
2022/10/07 02:50:41;;;;;;;;;;;;;;;11.48;91.93;97891.72;30001;982;1877;-57
2022/10/07 02:51:17;;;;;;;;;;;;;;;11.47;92.45;97887.38;30001;982;1881;-57
2022/10/07 02:51:53;;;;;;;;;;;;;;;11.47;92.25;97892.81;30001;983;1863;-57
2022/10/07 02:52:25;;;;;;;;;;;;;;;11.47;92.21;97890.09;30001;983;1770;-57
2022/10/07 02:52:57;;;;;;;;;;;;;;;11.47;91.86;97895.53;30001;983;1876;-57
2022/10/07 02:53:31;;;;;;;;;;;;;;;11.48;91.81;97892.56;30001;983;1880;-57
2022/10/07 02:54:03;;;;;;;;;;;;;;;11.47;91.54;97890.09;30001;983;1875;-57
2022/10/07 02:54:37;;;;;;;;;;;;;;;11.46;91.32;97897.44;30001;983;1880;-57
2022/10/07 02:55:14;;;;;;;;;;;;;;;11.46;91.31;97885.75;30001;983;1876;-57
2022/10/07 02:55:48;;;;;;;;;;;;;;;11.46;91.45;97885.75;30001;983;1881;-58
2022/10/07 02:56:21;;;;;;;;;;;;;;;11.46;90.82;97886.56;30001;983;1877;-58
2022/10/07 02:56:53;;;;;;;;;;;;;;;11.46;90.98;97885.75;30001;982;1867;-58
2022/10/07 02:57:26;;;;;;;;;;;;;;;11.46;91.19;97886.56;30001;982;1867;-57
2022/10/07 02:57:59;;;;;;;;;;;;;;;11.47;91.00;97887.38;30001;982;1881;-57
2022/10/07 02:58:30;;;;;;;;;;;;;;;11.47;91.05;97884.66;30001;982;1876;-57
2022/10/07 02:59:04;;;;;;;;;;;;;;;11.48;90.90;97889.00;30001;982;1881;-57
2022/10/07 02:59:36;;;;;;;;;;;;;;;11.47;91.07;97884.66;30001;983;1778;-57
2022/10/07 03:00:09;;;;;;;;;;;;;;;11.48;91.09;97881.69;30001;983;1880;-57
2022/10/07 03:00:45;;;;;;;;;;;;;;;11.48;91.34;97886.31;30001;983;1876;-57
2022/10/07 03:01:18;;;;;;;;;;;;;;;11.48;91.67;97887.13;30001;983;1880;-58
2022/10/07 03:01:53;;;;;;;;;;;;;;;11.45;91.55;97879.50;30001;983;1875;-57
2022/10/07 03:02:26;;;;;;;;;;;;;;;11.43;91.82;97882.50;30001;983;1867;-57
2022/10/07 03:03:02;;;;;;;;;;;;;;;11.43;91.93;97885.22;30001;983;1868;-57
2022/10/07 03:03:33;;;;;;;;;;;;;;;11.41;92.21;97881.97;30001;982;1881;-57
2022/10/07 03:04:04;;;;;;;;;;;;;;;11.42;92.35;97885.53;30001;982;1876;-57
2022/10/07 03:04:36;;;;;;;;;;;;;;;11.40;92.07;97883.06;30001;982;1881;-57
2022/10/07 03:05:08;;;;;;;;;;;;;;;11.42;92.14;97885.53;30001;982;1877;-58
2022/10/07 03:05:39;;;;;;;;;;;;;;;11.41;91.97;97879.28;30001;982;1881;-58
2022/10/07 03:06:11;;;;;;;;;;;;;;;11.42;91.72;97877.38;30001;982;1877;-58
2022/10/07 03:06:44;;;;;;;;;;;;;;;11.41;91.72;97878.44;30001;982;1868;-58
2022/10/07 03:07:16;;;;;;;;;;;;;;;11.41;91.50;97879.28;30001;983;1867;-57
2022/10/07 03:07:48;;;;;;;;;;;;;;;11.41;91.83;97873.84;30001;983;1880;-56
2022/10/07 03:08:20;;;;;;;;;;;;;;;11.41;91.58;97871.12;30001;983;1876;-57
2022/10/07 03:08:51;;;;;;;;;;;;;;;11.41;91.71;97867.59;30001;983;1880;-57
2022/10/07 03:09:23;;;;;;;;;;;;;;;11.41;91.35;97868.41;30001;983;1875;-64
2022/10/07 03:09:54;;;;;;;;;;;;;;;11.42;91.21;97877.38;30001;983;1880;-58
2022/10/07 03:10:28;;;;;;;;;;;;;;;11.40;91.36;97872.19;30001;983;1876;-57
2022/10/07 03:10:59;;;;;;;;;;;;;;;11.39;91.29;97876.00;30001;983;1881;-58
2022/10/07 03:11:30;;;;;;;;;;;;;;;11.39;91.12;97873.28;30001;982;1876;-57
2022/10/07 03:12:00;;;;;;;;;;;;;;;11.37;91.22;97867.31;30001;982;1868;-57